Baton Rouge, LA (70806)

1:21 AM CDT on August 28, 2014 (GMT -0500)
Capital Heights | Change Station
CLOSE
Current Station
Personal Weather Station
Location: Baton Rouge, LA
Elevation: 82 ft
Nearby Weather Stations

Elev 82 ft 30.44 °N, 91.13 °W | Updated 3 seconds ago

Clear
Clear
79.2 °F
Feels Like 83 °F
N
0.0
Wind Variable Wind from South
Gusts 0.0 mph

Today
High -- | Low -- °F
--% Chance of Precip.
Yesterday
High -- | Low -- °F
Precip. -- in
6:38 AM 7:32 PM
Waxing Crescent, 6% visible
Pressure 30.00 in
Visibility 10.0 miles
Clouds Clear
Heat Index 83 °F
Dew Point 76 °F
Humidity 89%
Rainfall 0.00 in
Snow Depth Not available.
UV 0 out of 12
Pollen 7.90 out of 12
Ozone Good
PM2.5 Good
Flu Activity Not available.
METAR KBTR 280553Z 00000KT 10SM CLR 24/23 A3000 RMK AO2 SLP158 T02440233 10294 20244 403390222 52004

More Conditions Fewer Conditions

Pressure 30.00 in
Visibility 10.0 miles
Clouds Clear
Heat Index 83 °F
Dew Point 76 °F
Humidity 89%
Rainfall 0.00 in
Snow Depth Not available.
UV 0 out of 12
Pollen 7.90 out of 12
Ozone Good
PM2.5 Good
Flu Activity Not available.
METAR KBTR 280553Z 00000KT 10SM CLR 24/23 A3000 RMK AO2 SLP158 T02440233 10294 20244 403390222 52004

More Conditions Fewer Conditions

10-Day Weather Forecast

Almanac

Astronomy

Aug. 28, 2014 Rise Set
Actual Time 6:38 AM CDT 7:32 PM CDT
Civil Twilight 6:14 AM CDT 7:56 PM CDT
Nautical Twilight 5:45 AM CDT 8:25 PM CDT
Astronomical Twilight 5:15 AM CDT 8:55 PM CDT
Moon 9:16 AM CDT 9:12 PM CDT
Length of Visible Light 13h 42m
Length of Day
12h 53m
Tomorrow will be 1m 44s shorter.
Waxing Crescent, 6% of the Moon is Illuminated
Today
Waxing Crescent
Sep 2
First Quarter
Sep 8
Full
Sep 15
Last Quarter
Sep 24
New

Today's Extremes

State Highs State Lows

Community

WunderPhotos

Upload Photos

1,747,912 photos uploaded!

Nearby

Air Quality

  Air Quality AQ Index Pollutant
Yesterday Moderate
PM2.5
Yesterday Good
OZONE
Current Good
PM2.5
Current Good
OZONE
Wednesday Good
PM2.5
Wednesday Good
OZONE
Thursday Good
PM2.5
Thursday Good
OZONE
Friday Good
PM2.5
Friday Good
OZONE

Snow Depth

Station Depth Elevation
No new snow has been reported.

Earthquake Activity

City Distance Mag. Time & Date
No recent earthquake activity has been reported nearby.
Minimum magnitude displayed is 2.5.

Coastal Water Temperatures

Place Temperature
No Stations Reporting

Nearby Weather Stations